aviador You're here:

KDAN Decoded Metar

DANVILLE in VA, USA
Report Time2018-07-17 00:53:00
UTC Time2018-07-17 01:58:11
Flight Rules vfr VFR
Wind150° at 03 kt
W.Decomp.*RWY 13: 2.6 kt HW 1.5 kt RCW
RWY 20: 2.3 kt HW 2 kt LCW
W.Rank150° ranks 34
Current wind is below 150° avg. (4.0)
Visibility9999 m
Phenomena:N/A
Clouds:Broken 055 Hf
Broken 120 Hf
Ceiling5,500 ft
Temp24°C (ISA +10)
Dew Point24°C (100% RH)
QNH1015 hPa
Density Alt2,077 ft
Elevation574 ft
Report Wrong Elevation
Raw Report
METAR KDAN 170053Z AUTO 15003KT 8SM BKN055 BKN120 24/24 A2997 RMK AO2
SLP138 T02390239=

Extra information for KDAN:More info

Metar Taf Metar & Taf Last 4 Metars F.Rules Stats Wind Profile Meteogram Temp Stats Airport Information Weather charts Add Link Nearby VenuesMetar ALERT Operation Metar Decoded Social comments

AIRNAV info for KDAN